Time;durP1;ratioP1;P1;durP2;ratioP2;P2;SDS_P1;SDS_P2;PMS_P1;PMS_P2;Temp;Humidity;BMP_temperature;BMP_pressure;BME280_temperature;BME280_humidity;BME280_pressure;Samples;Min_cycle;Max_cycle;Signal;HPM_P1;HPM_P2
2023/06/03 00:00:13;;;;;;;2.60;0.93;;;;;;;17.42;31.03;101998.84;5038060;27;98444;-63
2023/06/03 00:02:40;;;;;;;2.72;1.10;;;;;;;17.34;31.11;102000.97;5033185;27;97982;-64
2023/06/03 00:05:07;;;;;;;3.95;1.10;;;;;;;17.38;30.67;101999.94;5031949;27;98632;-64
2023/06/03 00:07:33;;;;;;;4.25;0.95;;;;;;;17.21;31.09;101997.09;5030363;27;98620;-63
2023/06/03 00:10:00;;;;;;;2.25;1.25;;;;;;;17.21;31.11;101994.44;5033302;27;97044;-63
2023/06/03 00:12:26;;;;;;;2.63;1.00;;;;;;;17.24;31.04;101988.97;5031879;27;97046;-63
2023/06/03 00:14:52;;;;;;;4.55;1.27;;;;;;;17.06;31.16;101995.97;5033689;27;98901;-63
2023/06/03 00:17:21;;;;;;;1.25;0.77;;;;;;;17.05;31.27;101995.13;5035011;27;99178;-62
2023/06/03 00:19:48;;;;;;;2.47;1.08;;;;;;;17.21;31.22;101991.75;5034345;27;96809;-63
2023/06/03 00:22:15;;;;;;;1.27;1.10;;;;;;;17.24;31.13;101988.97;5036735;27;97028;-64
2023/06/03 00:24:41;;;;;;;1.55;1.00;;;;;;;17.09;31.33;102002.06;5028264;27;99291;-63
2023/06/03 00:27:08;;;;;;;2.15;1.10;;;;;;;17.30;31.29;101994.91;5029508;27;99578;-63
2023/06/03 00:29:34;;;;;;;3.05;1.10;;;;;;;17.23;31.38;101998.78;5041275;27;96816;-62
2023/06/03 00:32:00;;;;;;;3.88;1.52;;;;;;;17.11;31.60;101993.97;5031406;27;97370;-63
2023/06/03 00:34:28;;;;;;;2.95;0.98;;;;;;;17.08;31.45;101996.75;5029187;27;98923;-63
2023/06/03 00:36:54;;;;;;;2.88;0.93;;;;;;;17.17;31.49;101992.84;5029481;27;98083;-64
2023/06/03 00:39:22;;;;;;;1.20;1.10;;;;;;;17.12;31.57;101999.25;5025644;27;97450;-62
2023/06/03 00:41:49;;;;;;;3.90;1.02;;;;;;;17.17;31.72;101998.19;5031574;27;97264;-62
2023/06/03 00:44:15;;;;;;;1.08;0.95;;;;;;;17.22;32.01;101997.03;5035652;27;98283;-62
2023/06/03 00:46:42;;;;;;;2.38;0.80;;;;;;;17.21;31.60;101999.78;5033775;27;98857;-63
2023/06/03 00:49:09;;;;;;;2.08;0.85;;;;;;;17.14;31.70;101994.69;5029149;27;96877;-63
2023/06/03 00:51:37;;;;;;;3.38;1.17;;;;;;;17.01;32.06;102001.50;5030826;27;96755;-64
2023/06/03 00:54:03;;;;;;;2.00;0.93;;;;;;;17.07;31.77;102003.03;5031047;27;101772;-63
2023/06/03 00:56:37;;;;;;;4.13;0.95;;;;;;;16.98;31.85;101998.09;5031109;27;102790;-64
2023/06/03 00:59:04;;;;;;;0.95;0.80;;;;;;;16.98;32.02;102001.66;5031506;27;96819;-62
2023/06/03 01:01:31;;;;;;;5.88;0.90;;;;;;;16.81;32.17;102001.47;5026830;27;97808;-63
2023/06/03 01:03:57;;;;;;;1.98;0.90;;;;;;;16.93;31.92;101995.66;5026594;27;102078;-64
2023/06/03 01:06:34;;;;;;;1.75;0.85;;;;;;;16.79;32.32;102008.69;5028039;27;101449;-62
2023/06/03 01:09:15;;;;;;;3.67;0.88;;;;;;;16.81;32.37;102008.59;5028602;27;96822;-63
2023/06/03 01:11:51;;;;;;;4.15;0.98;;;;;;;16.79;32.62;102008.69;5023251;27;96874;-63
2023/06/03 01:14:25;;;;;;;4.05;0.80;;;;;;;16.47;32.75;102003.75;5030552;27;98892;-64
2023/06/03 01:16:52;;;;;;;1.65;0.80;;;;;;;16.54;32.47;102013.25;5031546;27;98754;-63
2023/06/03 01:19:36;;;;;;;3.65;1.05;;;;;;;16.63;32.90;102007.56;5029991;27;96998;-63
2023/06/03 01:22:06;;;;;;;1.00;0.70;;;;;;;16.67;32.54;102011.88;5027983;27;97155;-62
2023/06/03 01:24:34;;;;;;;1.70;1.02;;;;;;;16.37;33.00;102010.38;5027879;27;98993;-64
2023/06/03 01:27:01;;;;;;;1.90;0.77;;;;;;;16.65;32.94;102003.03;5041288;27;99460;-63
2023/06/03 01:29:31;;;;;;;3.33;1.05;;;;;;;16.59;32.50;102005.94;5031392;27;97628;-65
2023/06/03 01:31:58;;;;;;;2.22;0.80;;;;;;;16.50;32.59;102012.50;5036642;27;97300;-64
2023/06/03 01:34:25;;;;;;;1.23;0.80;;;;;;;16.43;32.67;102012.81;5035284;27;101006;-62
2023/06/03 01:36:52;;;;;;;1.95;0.90;;;;;;;16.32;32.96;102013.22;5038474;27;99339;-63
2023/06/03 01:39:19;;;;;;;2.72;1.23;;;;;;;16.41;32.82;102020.00;5029159;27;96856;-62
2023/06/03 01:41:47;;;;;;;98.30;34.08;;;;;;;16.33;32.85;102021.19;5029141;27;96811;-62
2023/06/03 01:44:14;;;;;;;5.35;1.35;;;;;;;16.28;32.90;102027.59;5027975;27;99298;-62
2023/06/03 01:46:41;;;;;;;1.67;0.90;;;;;;;16.24;33.06;102018.88;5030488;27;99164;-62
2023/06/03 01:49:08;;;;;;;1.48;0.90;;;;;;;16.24;33.10;102021.53;5030337;27;97224;-62
2023/06/03 01:51:35;;;;;;;3.83;1.10;;;;;;;16.33;33.45;102018.50;5025256;27;98734;-63
2023/06/03 01:54:02;;;;;;;3.28;1.30;;;;;;;16.21;33.30;102010.13;5030106;27;99572;-63
2023/06/03 01:56:29;;;;;;;3.55;1.13;;;;;;;16.16;33.20;102018.28;5030930;27;99315;-64
2023/06/03 01:58:56;;;;;;;3.78;1.05;;;;;;;16.17;33.43;102013.81;5029496;27;101949;-62
2023/06/03 02:01:24;;;;;;;2.60;0.93;;;;;;;16.10;33.28;102023.84;5026276;27;99076;-63
2023/06/03 02:03:51;;;;;;;6.82;1.08;;;;;;;16.12;33.15;102016.69;5025452;27;98930;-63
2023/06/03 02:06:17;;;;;;;1.70;0.80;;;;;;;16.14;33.02;102019.28;5031600;27;97842;-63
2023/06/03 02:08:43;;;;;;;5.38;1.58;;;;;;;15.91;33.42;102026.34;5036444;27;97151;-63
2023/06/03 02:11:10;;;;;;;2.75;0.73;;;;;;;16.04;33.51;102018.75;5028325;27;96946;-64
2023/06/03 02:13:36;;;;;;;2.90;0.85;;;;;;;15.98;33.50;102024.31;5030539;27;98949;-62
2023/06/03 02:16:04;;;;;;;1.77;1.10;;;;;;;16.01;33.38;102021.56;5031103;27;99126;-62
2023/06/03 02:18:31;;;;;;;1.77;0.80;;;;;;;15.95;33.50;102014.63;5028736;27;97611;-63
2023/06/03 02:20:58;;;;;;;2.47;0.88;;;;;;;16.00;33.12;102018.94;5034207;27;96836;-63
2023/06/03 02:23:24;;;;;;;2.67;0.90;;;;;;;16.02;33.17;102017.94;5027957;27;98849;-63
2023/06/03 02:25:51;;;;;;;2.72;0.80;;;;;;;15.99;33.08;102020.75;5034607;27;102412;-62
2023/06/03 02:28:17;;;;;;;4.63;1.27;;;;;;;15.93;33.39;102020.97;5027043;27;96851;-63
2023/06/03 02:30:44;;;;;;;2.78;1.10;;;;;;;15.95;33.21;102024.44;5032169;27;96932;-62
2023/06/03 02:33:12;;;;;;;1.13;0.68;;;;;;;15.82;33.32;102025.81;5024902;27;101537;-65
2023/06/03 02:35:38;;;;;;;1.63;0.80;;;;;;;15.87;32.96;102031.88;5030708;27;98946;-62
2023/06/03 02:38:05;;;;;;;4.65;1.00;;;;;;;15.97;33.04;102029.72;5028935;27;97395;-62
2023/06/03 02:40:31;;;;;;;2.08;1.00;;;;;;;15.96;32.68;102020.84;5026777;27;96970;-62
2023/06/03 02:42:58;;;;;;;0.88;0.60;;;;;;;15.94;32.82;102023.59;5038643;27;99228;-61
2023/06/03 02:45:24;;;;;;;1.60;0.90;;;;;;;15.87;33.28;102031.88;5024185;27;98811;-62
2023/06/03 02:47:50;;;;;;;2.30;0.82;;;;;;;15.86;33.09;102024.78;5033973;27;97118;-63
2023/06/03 02:50:18;;;;;;;1.48;0.70;;;;;;;15.81;32.87;102026.75;5022400;27;98318;-64
2023/06/03 02:52:45;;;;;;;3.20;1.02;;;;;;;15.76;32.83;102028.69;5028401;27;98973;-64
2023/06/03 02:55:11;;;;;;;1.85;0.77;;;;;;;15.66;33.10;102029.97;5024294;27;99830;-62
2023/06/03 02:57:38;;;;;;;1.08;0.82;;;;;;;15.74;32.93;102030.56;5021444;27;98054;-63
2023/06/03 03:00:10;;;;;;;3.40;0.77;;;;;;;15.75;32.64;102030.50;5023330;27;99714;-64
2023/06/03 03:02:37;;;;;;;1.88;0.90;;;;;;;15.75;33.14;102029.66;5024962;27;99277;-63
2023/06/03 03:05:03;;;;;;;2.05;0.55;;;;;;;15.75;32.99;102032.31;5025676;27;99288;-63
2023/06/03 03:07:32;;;;;;;3.22;0.77;;;;;;;15.82;32.73;102032.00;5030407;27;100007;-63
2023/06/03 03:09:59;;;;;;;4.15;0.75;;;;;;;15.71;32.78;102022.69;5022188;27;97113;-64
2023/06/03 03:12:25;;;;;;;2.92;0.70;;;;;;;15.79;32.40;102033.94;5028484;27;99156;-62
2023/06/03 03:14:52;;;;;;;4.82;0.90;;;;;;;15.70;32.74;102024.47;5026147;27;101580;-63
2023/06/03 03:17:18;;;;;;;2.42;0.60;;;;;;;15.65;32.65;102030.91;5029521;27;96818;-63
2023/06/03 03:19:45;;;;;;;1.55;0.73;;;;;;;15.53;32.64;102032.22;5028442;27;97337;-64
2023/06/03 03:22:11;;;;;;;2.85;0.80;;;;;;;15.46;32.77;102031.53;5023371;27;98967;-65
2023/06/03 03:24:40;;;;;;;1.00;0.60;;;;;;;15.67;32.43;102032.59;5029414;27;98939;-63
2023/06/03 03:27:07;;;;;;;1.35;0.77;;;;;;;15.69;32.46;102025.41;5029128;27;96802;-63
2023/06/03 03:29:34;;;;;;;1.35;0.68;;;;;;;15.74;32.37;102030.56;5024145;27;96784;-65
2023/06/03 03:32:08;;;;;;;0.75;0.70;;;;;;;15.77;32.28;102033.97;5021328;27;99021;-63
2023/06/03 03:34:36;;;;;;;1.80;0.93;;;;;;;15.66;32.56;102032.66;5031150;27;98791;-62
2023/06/03 03:37:03;;;;;;;2.58;0.80;;;;;;;15.54;32.54;102034.84;5034803;27;97141;-63
2023/06/03 03:39:29;;;;;;;2.47;0.80;;;;;;;15.48;32.87;102032.34;5028969;27;98799;-63
2023/06/03 03:41:57;;;;;;;5.00;0.93;;;;;;;15.69;32.76;102035.19;5035972;27;98886;-63
2023/06/03 03:44:24;;;;;;;4.32;0.68;;;;;;;15.73;32.47;102034.16;5029791;27;98809;-63
2023/06/03 03:46:59;;;;;;;1.00;0.70;;;;;;;15.75;32.54;102035.81;5029099;27;97241;-63
2023/06/03 03:49:30;;;;;;;1.23;0.70;;;;;;;15.69;32.48;102038.72;5031132;27;96878;-62
2023/06/03 03:51:57;;;;;;;6.07;0.80;;;;;;;15.55;32.60;102035.72;5030707;27;99430;-62
2023/06/03 03:54:24;;;;;;;4.55;0.88;;;;;;;15.70;32.60;102036.94;5030885;27;99352;-63
2023/06/03 03:56:54;;;;;;;4.78;0.73;;;;;;;15.75;32.81;102042.97;5029129;27;98710;-63
2023/06/03 03:59:22;;;;;;;3.08;0.75;;;;;;;15.93;32.30;102040.50;5026206;27;98751;-64
2023/06/03 04:01:49;;;;;;;2.78;0.73;;;;;;;16.01;31.92;102042.88;5031604;27;99195;-62
2023/06/03 04:04:31;;;;;;;2.78;0.95;;;;;;;16.07;32.30;102048.00;5030486;27;98868;-63
2023/06/03 04:06:57;;;;;;;0.95;0.60;;;;;;;16.20;31.91;102056.38;5031325;27;99535;-63
2023/06/03 04:09:24;;;;;;;1.55;0.80;;;;;;;16.14;32.16;102046.84;5032719;27;97055;-63
2023/06/03 04:11:50;;;;;;;4.82;0.82;;;;;;;16.21;31.89;102061.63;5029087;27;98942;-64
2023/06/03 04:14:18;;;;;;;4.55;0.82;;;;;;;16.28;31.87;102065.81;5029605;27;98735;-63
2023/06/03 04:17:04;;;;;;;2.00;0.80;;;;;;;16.30;31.80;102063.09;5032371;27;98830;-62
2023/06/03 04:19:36;;;;;;;1.45;0.90;;;;;;;16.35;31.84;102051.31;5034487;27;96927;-63
2023/06/03 04:22:04;;;;;;;2.65;0.80;;;;;;;16.38;31.95;102061.00;5033096;27;101455;-64
2023/06/03 04:24:30;;;;;;;1.30;0.80;;;;;;;16.37;32.27;102053.94;5031136;27;99352;-63
2023/06/03 04:26:57;;;;;;;1.75;1.00;;;;;;;16.51;31.82;102061.41;5038101;27;96777;-64
2023/06/03 04:29:24;;;;;;;0.95;0.80;;;;;;;16.77;31.53;102063.94;5034733;27;97634;-63
2023/06/03 04:31:50;;;;;;;5.00;1.15;;;;;;;16.84;31.18;102068.09;5031271;27;97871;-63
2023/06/03 04:34:18;;;;;;;3.70;1.00;;;;;;;16.86;31.14;102068.91;5033503;27;97736;-64
2023/06/03 04:36:44;;;;;;;3.17;0.90;;;;;;;17.01;31.13;102067.38;5030298;27;98791;-63
2023/06/03 04:39:11;;;;;;;4.57;0.80;;;;;;;16.90;31.15;102067.84;5024243;27;96847;-62
2023/06/03 04:41:38;;;;;;;4.22;1.10;;;;;;;17.44;30.60;102061.13;5026749;27;99196;-62
2023/06/03 04:44:05;;;;;;;1.95;0.82;;;;;;;17.36;30.50;102060.56;5028358;27;98888;-63
2023/06/03 04:46:31;;;;;;;3.53;1.40;;;;;;;17.32;30.68;102061.66;5027370;27;96937;-65
2023/06/03 04:48:59;;;;;;;2.40;1.02;;;;;;;17.40;30.32;102055.00;5034127;27;96944;-62
2023/06/03 04:51:27;;;;;;;3.55;1.08;;;;;;;17.39;30.47;102049.75;5029893;27;99386;-61
2023/06/03 04:53:55;;;;;;;4.35;1.20;;;;;;;17.67;30.30;102049.44;5029216;27;99158;-63
2023/06/03 04:56:24;;;;;;;5.30;1.30;;;;;;;18.30;29.28;102053.66;5028811;27;97014;-63
2023/06/03 04:58:54;;;;;;;3.45;1.50;;;;;;;20.22;27.44;102061.66;5032916;27;97028;-63
2023/06/03 05:01:21;;;;;;;2.13;1.00;;;;;;;21.45;25.50;102051.03;5033502;27;101510;-63
2023/06/03 05:03:47;;;;;;;2.42;1.00;;;;;;;21.23;24.71;102055.97;5027789;27;98823;-62
2023/06/03 05:06:14;;;;;;;4.03;1.00;;;;;;;21.08;24.86;102058.56;5025848;27;97520;-64
2023/06/03 05:08:42;;;;;;;3.47;1.48;;;;;;;20.68;25.15;102054.63;5035223;27;98225;-63
2023/06/03 05:11:08;;;;;;;4.07;1.13;;;;;;;19.95;26.67;102060.50;5026974;27;98952;-65
2023/06/03 05:13:35;;;;;;;3.90;1.02;;;;;;;20.09;26.33;102057.94;5026040;27;99175;-65
2023/06/03 05:16:01;;;;;;;4.00;1.42;;;;;;;20.17;26.02;102063.75;5034110;27;97123;-64
2023/06/03 05:18:27;;;;;;;3.17;1.33;;;;;;;19.86;26.57;102055.63;5027721;27;98730;-64
2023/06/03 05:20:54;;;;;;;1.52;1.02;;;;;;;19.45;27.06;102057.78;5032571;27;99328;-64
2023/06/03 05:23:20;;;;;;;3.75;1.52;;;;;;;19.33;27.17;102059.28;5031813;27;98802;-63
2023/06/03 05:25:48;;;;;;;3.22;1.60;;;;;;;18.81;27.84;102061.03;5032036;27;96818;-63
2023/06/03 05:28:14;;;;;;;4.93;1.50;;;;;;;18.09;28.74;102057.34;5032359;27;96819;-63
2023/06/03 05:30:41;;;;;;;6.22;1.50;;;;;;;18.30;28.90;102051.00;5032162;27;98647;-64
2023/06/03 05:33:07;;;;;;;3.80;1.45;;;;;;;18.48;28.81;102058.13;5023735;27;98922;-62
2023/06/03 05:35:33;;;;;;;4.00;1.20;;;;;;;18.57;28.80;102056.88;5023825;27;96922;-62
2023/06/03 05:38:00;;;;;;;3.97;1.15;;;;;;;18.63;28.77;102053.91;5032768;27;97220;-63
2023/06/03 05:40:26;;;;;;;5.22;1.40;;;;;;;18.76;28.38;102051.50;5026277;27;97025;-62
2023/06/03 05:42:55;;;;;;;4.22;1.10;;;;;;;18.79;28.44;102049.50;5030197;27;98955;-62
2023/06/03 05:45:34;;;;;;;5.25;1.60;;;;;;;18.99;28.23;102043.16;5028165;27;96800;-64
2023/06/03 05:48:00;;;;;;;4.85;1.35;;;;;;;18.76;28.51;102057.72;5031492;27;97161;-64
2023/06/03 05:50:27;;;;;;;4.25;1.45;;;;;;;18.84;28.94;102043.97;5023822;27;99056;-64
2023/06/03 05:52:55;;;;;;;7.03;1.40;;;;;;;19.12;28.36;102055.00;5033861;27;98811;-63
2023/06/03 05:55:22;;;;;;;3.63;1.17;;;;;;;19.00;28.59;102050.25;5021236;27;98671;-64
2023/06/03 05:57:48;;;;;;;6.07;1.40;;;;;;;19.36;28.11;102044.88;5028903;27;96839;-62
2023/06/03 06:00:17;;;;;;;2.42;1.42;;;;;;;19.19;27.93;102051.06;5028507;27;98945;-63
2023/06/03 06:02:43;;;;;;;5.30;1.30;;;;;;;18.92;28.89;102049.78;5020726;27;97601;-63
2023/06/03 06:05:09;;;;;;;9.98;1.77;;;;;;;19.09;28.38;102047.13;5026468;27;97335;-63
2023/06/03 06:07:36;;;;;;;11.73;1.40;;;;;;;19.21;28.17;102051.88;5026138;27;97681;-62
2023/06/03 06:10:02;;;;;;;3.67;1.52;;;;;;;19.45;27.83;102047.06;5025829;27;98848;-62
2023/06/03 06:12:29;;;;;;;2.40;1.35;;;;;;;19.78;27.66;102050.66;5029947;27;101216;-63
2023/06/03 06:14:55;;;;;;;4.47;1.33;;;;;;;19.73;27.56;102051.88;5024994;27;97287;-65
2023/06/03 06:17:23;;;;;;;7.07;1.70;;;;;;;19.64;27.55;102055.91;5030932;27;98255;-63
2023/06/03 06:19:50;;;;;;;5.68;1.50;;;;;;;19.60;27.48;102057.03;5029358;27;99256;-64
2023/06/03 06:22:17;;;;;;;6.05;1.33;;;;;;;19.57;27.82;102056.28;5033626;27;99313;-62
2023/06/03 06:24:43;;;;;;;4.70;1.65;;;;;;;20.06;27.46;102055.44;5023396;27;96879;-62
2023/06/03 06:27:10;;;;;;;5.95;1.17;;;;;;;19.71;27.15;102054.63;5029326;27;98441;-63
2023/06/03 06:29:36;;;;;;;2.08;1.30;;;;;;;19.53;27.90;102052.91;5027388;27;100528;-63
2023/06/03 06:32:04;;;;;;;7.85;1.60;;;;;;;19.60;27.84;102056.16;5025601;27;98017;-64
2023/06/03 06:34:35;;;;;;;7.20;1.67;;;;;;;20.11;27.27;102057.84;5024733;27;99365;-64
2023/06/03 06:37:01;;;;;;;4.55;2.15;;;;;;;20.48;26.50;102057.56;5026579;27;97494;-63
2023/06/03 06:39:56;;;;;;;5.40;1.58;;;;;;;20.87;26.25;102056.28;5024223;27;99366;-62
2023/06/03 06:42:33;;;;;;;4.95;1.58;;;;;;;20.92;25.64;102062.25;4999584;27;99864;-64
2023/06/03 06:45:08;;;;;;;2.97;1.20;;;;;;;20.72;25.98;102057.16;5022690;27;98959;-63
2023/06/03 06:47:37;;;;;;;6.32;1.73;;;;;;;20.91;25.85;102056.00;5019682;27;98766;-62
2023/06/03 06:50:09;;;;;;;4.38;1.60;;;;;;;20.87;25.93;102045.53;5024819;27;98988;-64
2023/06/03 06:52:36;;;;;;;3.65;1.42;;;;;;;21.13;25.84;102047.56;5018597;27;98838;-62
2023/06/03 06:55:02;;;;;;;8.98;1.75;;;;;;;21.80;24.92;102052.41;5030605;27;96791;-63
2023/06/03 06:57:30;;;;;;;6.10;1.40;;;;;;;21.63;24.80;102059.81;5025985;27;99213;-63
2023/06/03 06:59:56;;;;;;;7.90;1.63;;;;;;;21.56;25.48;102059.31;5031143;27;98006;-63
2023/06/03 07:02:23;;;;;;;4.10;1.30;;;;;;;21.78;24.88;102054.38;5028448;27;98827;-63
2023/06/03 07:04:50;;;;;;;6.78;1.45;;;;;;;22.01;24.28;102057.47;5023944;27;97679;-62
2023/06/03 07:07:18;;;;;;;4.20;1.48;;;;;;;22.04;24.48;102052.78;5026026;27;97120;-63
2023/06/03 07:09:45;;;;;;;3.45;1.35;;;;;;;21.88;24.62;102055.50;5023546;27;99313;-63
2023/06/03 07:12:11;;;;;;;8.35;1.75;;;;;;;21.87;24.54;102053.78;5029579;27;98910;-63
2023/06/03 07:14:38;;;;;;;4.90;1.42;;;;;;;21.64;24.86;102051.66;5028058;27;96738;-64
2023/06/03 07:17:06;;;;;;;2.20;1.35;;;;;;;21.90;24.42;102055.41;5021677;27;96840;-63
2023/06/03 07:19:37;;;;;;;3.17;1.45;;;;;;;21.90;24.50;102051.88;5028984;27;98924;-64
2023/06/03 07:22:05;;;;;;;5.43;1.30;;;;;;;22.08;24.37;102058.81;5027322;27;101763;-63
2023/06/03 07:24:34;;;;;;;3.67;1.40;;;;;;;21.99;24.33;102051.34;5033250;27;96860;-63
2023/06/03 07:27:01;;;;;;;7.38;1.55;;;;;;;22.13;24.45;102051.31;5033720;27;97257;-63
2023/06/03 07:29:31;;;;;;;6.95;2.00;;;;;;;21.94;24.47;102054.25;5034006;27;98893;-64
2023/06/03 07:31:57;;;;;;;3.67;1.58;;;;;;;21.38;24.67;102055.91;5034575;27;98919;-64
2023/06/03 07:34:24;;;;;;;6.50;1.70;;;;;;;22.14;24.23;102050.34;5033775;27;97293;-64
2023/06/03 07:36:52;;;;;;;7.75;1.77;;;;;;;22.52;23.69;102054.13;5034907;27;96941;-65
2023/06/03 07:39:21;;;;;;;4.18;1.25;;;;;;;22.54;23.55;102060.28;5035568;27;99240;-63
2023/06/03 07:41:51;;;;;;;5.22;2.17;;;;;;;22.65;23.39;102065.84;5029529;27;99402;-66
2023/06/03 07:44:26;;;;;;;3.83;1.58;;;;;;;22.86;22.99;102050.13;5034647;27;96956;-63
2023/06/03 07:46:56;;;;;;;4.68;1.42;;;;;;;23.21;22.58;102055.84;5032214;27;97379;-64
2023/06/03 07:49:24;;;;;;;7.18;1.65;;;;;;;23.16;22.95;102052.63;5032797;27;99500;-64
2023/06/03 07:51:53;;;;;;;2.60;1.38;;;;;;;23.26;22.55;102056.41;5028425;27;98787;-63
2023/06/03 07:54:20;;;;;;;2.50;1.45;;;;;;;23.24;22.23;102052.94;5029675;27;96808;-64
2023/06/03 07:56:50;;;;;;;4.93;1.48;;;;;;;23.33;22.40;102046.91;5035136;27;96997;-66
2023/06/03 07:59:20;;;;;;;5.25;1.38;;;;;;;23.17;22.12;102048.91;5032356;27;98964;-65
2023/06/03 08:01:48;;;;;;;5.93;1.63;;;;;;;23.10;21.82;102042.25;5028774;27;98893;-64
2023/06/03 08:04:34;;;;;;;3.83;1.13;;;;;;;22.83;22.05;102041.38;5032207;27;96977;-64
2023/06/03 08:07:02;;;;;;;5.37;1.50;;;;;;;22.98;22.11;102045.75;5036406;27;96950;-65
2023/06/03 08:09:41;;;;;;;2.72;1.65;;;;;;;23.18;22.08;102047.97;5029280;27;98859;-65
2023/06/03 08:12:09;;;;;;;3.75;1.40;;;;;;;22.95;22.27;102041.44;5037329;27;98965;-64
2023/06/03 08:14:38;;;;;;;2.47;1.17;;;;;;;23.29;21.99;102045.41;5033515;27;96824;-64
2023/06/03 08:17:09;;;;;;;4.45;1.23;;;;;;;23.18;22.09;102044.38;5027101;27;97220;-64
2023/06/03 08:19:35;;;;;;;4.40;1.00;;;;;;;22.89;22.05;102051.75;5028410;27;98923;-64
2023/06/03 08:22:02;;;;;;;11.27;1.38;;;;;;;22.78;21.86;102054.28;5029697;27;98942;-63
2023/06/03 08:24:28;;;;;;;3.42;1.40;;;;;;;22.95;21.71;102046.81;5037210;27;97702;-64
2023/06/03 08:26:55;;;;;;;4.30;1.70;;;;;;;23.07;21.78;102041.56;5031856;27;96993;-63
2023/06/03 08:29:21;;;;;;;4.25;1.33;;;;;;;23.49;21.65;102044.06;5029108;27;102028;-63
2023/06/03 08:31:49;;;;;;;4.38;1.35;;;;;;;23.45;21.50;102047.91;5029449;27;99261;-64
2023/06/03 08:34:16;;;;;;;3.85;1.20;;;;;;;23.63;21.13;102040.44;5035070;27;96793;-64
2023/06/03 08:36:42;;;;;;;4.80;1.00;;;;;;;23.63;20.94;102052.03;5030019;27;97213;-65
2023/06/03 08:39:09;;;;;;;5.63;1.27;;;;;;;23.76;21.15;102050.22;5030255;27;99330;-63
2023/06/03 08:41:38;;;;;;;3.20;1.30;;;;;;;23.81;20.97;102047.22;5031333;27;97571;-64
2023/06/03 08:44:14;;;;;;;3.28;1.38;;;;;;;23.41;21.35;102041.88;5031455;27;96819;-64
2023/06/03 08:46:43;;;;;;;;;;;;;;;23.41;21.47;102052.66;5030809;27;96962;-63
2023/06/03 08:49:16;;;;;;;7.65;1.92;;;;;;;23.64;21.42;102048.38;5023958;27;99657;-64
2023/06/03 08:51:47;;;;;;;2.25;1.10;;;;;;;23.92;21.23;102047.31;5018561;27;99303;-64
2023/06/03 08:54:17;;;;;;;4.75;1.55;;;;;;;24.05;21.02;102048.16;5041174;27;96836;-63
2023/06/03 08:56:48;;;;;;;6.20;1.30;;;;;;;23.84;20.64;102049.69;5026945;27;97644;-64
2023/06/03 08:59:20;;;;;;;7.50;2.20;;;;;;;23.71;20.80;102043.44;5033819;27;98937;-64
2023/06/03 09:01:47;;;;;;;7.15;1.50;;;;;;;23.61;21.11;102042.34;5037978;27;98758;-63
2023/06/03 09:04:16;;;;;;;3.67;1.38;;;;;;;24.08;20.49;102042.56;5032298;27;99315;-64
2023/06/03 09:06:44;;;;;;;3.53;1.00;;;;;;;24.01;20.78;102041.28;5030264;27;97852;-64
2023/06/03 09:09:11;;;;;;;2.75;1.10;;;;;;;23.84;20.81;102038.88;5033625;27;98964;-64
2023/06/03 09:11:39;;;;;;;7.97;1.08;;;;;;;23.80;20.74;102037.38;5023350;27;99079;-63
2023/06/03 09:14:06;;;;;;;6.40;1.20;;;;;;;23.92;20.03;102036.50;5031935;27;97279;-67
2023/06/03 09:16:34;;;;;;;2.45;1.13;;;;;;;24.19;19.62;102034.56;5026953;27;98074;-66
2023/06/03 09:19:00;;;;;;;3.35;1.13;;;;;;;24.35;20.13;102033.47;5025723;27;99373;-65
2023/06/03 09:21:28;;;;;;;5.72;1.25;;;;;;;24.20;20.23;102033.59;5026218;27;99274;-64
2023/06/03 09:23:55;;;;;;;4.38;1.05;;;;;;;24.24;20.09;102023.41;5025039;27;97037;-66
2023/06/03 09:26:22;;;;;;;3.00;1.10;;;;;;;24.16;19.91;102026.66;5029414;27;97659;-65
2023/06/03 09:28:49;;;;;;;5.13;1.40;;;;;;;24.20;19.94;102024.63;5027767;27;97772;-64
2023/06/03 09:31:15;;;;;;;4.30;1.00;;;;;;;24.14;19.28;102025.91;5032974;27;99003;-65
2023/06/03 09:33:47;;;;;;;2.65;0.95;;;;;;;24.00;19.80;102023.34;5036507;27;96710;-64
2023/06/03 09:36:17;;;;;;;7.00;1.30;;;;;;;24.14;20.09;102023.22;5033814;27;99373;-65
2023/06/03 09:39:10;;;;;;;2.90;0.93;;;;;;;24.01;19.26;102019.66;5029717;27;99225;-65
2023/06/03 09:41:37;;;;;;;6.28;1.30;;;;;;;23.64;19.49;102012.44;5033142;27;99735;-65
2023/06/03 09:44:08;;;;;;;6.65;0.95;;;;;;;23.91;19.64;102023.13;5025315;27;101926;-65
2023/06/03 09:46:42;;;;;;;5.80;1.05;;;;;;;23.99;19.49;102016.22;5034107;27;97448;-65
2023/06/03 09:49:13;;;;;;;5.88;1.25;;;;;;;24.42;19.69;102018.50;5027694;27;99273;-64
2023/06/03 09:51:44;;;;;;;4.70;1.33;;;;;;;24.68;19.04;102020.13;5036773;27;100785;-64
2023/06/03 09:54:14;;;;;;;5.30;1.10;;;;;;;24.58;18.52;102024.50;5030493;27;97174;-65
2023/06/03 09:56:41;;;;;;;3.90;1.40;;;;;;;24.42;18.79;102023.91;5033319;27;96734;-66
2023/06/03 09:59:16;;;;;;;5.22;1.15;;;;;;;24.14;18.86;102022.34;5030765;27;99248;-65
2023/06/03 10:01:43;;;;;;;5.68;1.25;;;;;;;24.26;19.05;102018.78;5032023;27;98816;-65
2023/06/03 10:04:10;;;;;;;2.03;0.75;;;;;;;24.22;18.88;102012.72;5031302;27;96925;-65
2023/06/03 10:06:38;;;;;;;4.55;1.13;;;;;;;23.90;19.00;102027.66;5032628;27;96932;-67
2023/06/03 10:09:22;;;;;;;2.67;1.40;;;;;;;23.56;19.38;102023.78;5033899;27;98192;-64
2023/06/03 10:11:50;;;;;;;6.68;1.73;;;;;;;23.83;19.56;102015.56;5031630;27;99095;-64
2023/06/03 10:14:22;;;;;;;5.70;1.55;;;;;;;23.97;19.11;102017.28;5030930;27;97163;-66
2023/06/03 10:17:06;;;;;;;6.50;1.30;;;;;;;24.22;19.25;102017.25;5030009;27;97105;-65
2023/06/03 10:19:34;;;;;;;2.65;0.70;;;;;;;24.21;18.53;102020.97;5032369;27;98171;-64
2023/06/03 10:22:02;;;;;;;5.47;1.23;;;;;;;24.44;18.40;102008.47;5027160;27;97660;-65
2023/06/03 10:24:31;;;;;;;3.85;0.80;;;;;;;24.20;18.58;102013.84;5032834;27;97088;-65
2023/06/03 10:26:57;;;;;;;4.07;1.20;;;;;;;24.67;18.63;102010.31;5029862;27;97794;-65
2023/06/03 10:29:25;;;;;;;4.57;1.02;;;;;;;24.53;18.10;102005.09;5028333;27;99293;-65
2023/06/03 10:31:54;;;;;;;6.00;1.25;;;;;;;24.47;17.97;102009.13;5027980;27;98918;-64
2023/06/03 10:34:23;;;;;;;3.05;1.45;;;;;;;24.41;18.51;102006.00;5032554;27;96818;-64
2023/06/03 10:36:51;;;;;;;5.35;1.50;;;;;;;24.58;18.54;101992.09;5036225;27;97067;-65
2023/06/03 10:39:19;;;;;;;3.00;1.80;;;;;;;24.47;18.97;101995.59;5035620;27;99681;-65
2023/06/03 10:41:47;;;;;;;4.63;1.05;;;;;;;24.44;19.33;101995.81;5033189;27;101686;-64
2023/06/03 10:44:13;;;;;;;3.95;1.48;;;;;;;24.41;19.58;101993.34;5020551;27;98158;-64
2023/06/03 10:46:50;;;;;;;6.40;1.13;;;;;;;24.27;19.52;101998.03;5027600;27;96972;-65
2023/06/03 10:49:20;;;;;;;9.40;1.20;;;;;;;23.66;19.65;101992.47;5029573;27;100755;-64
2023/06/03 10:51:59;;;;;;;3.45;1.02;;;;;;;23.68;19.51;101984.28;5036388;27;99200;-65
2023/06/03 10:54:36;;;;;;;7.63;1.25;;;;;;;23.70;19.83;101982.31;5041072;27;98612;-64
2023/06/03 10:57:08;;;;;;;4.72;1.05;;;;;;;24.32;19.55;101977.81;5038659;27;97235;-64
2023/06/03 10:59:43;;;;;;;4.80;1.05;;;;;;;24.14;19.49;101966.50;5041961;27;99231;-63
2023/06/03 11:02:10;;;;;;;7.85;1.25;;;;;;;24.38;19.62;101980.06;5036416;27;98763;-63
2023/06/03 11:04:37;;;;;;;9.63;1.20;;;;;;;24.12;19.74;101968.44;5033909;27;96988;-63
2023/06/03 11:07:05;;;;;;;3.55;0.90;;;;;;;24.35;20.17;101964.06;5033308;27;97733;-63
2023/06/03 11:09:34;;;;;;;5.85;1.50;;;;;;;24.31;19.40;101967.13;5032676;27;101638;-65
2023/06/03 11:12:05;;;;;;;5.85;1.30;;;;;;;24.28;19.56;101967.38;5026845;27;100654;-64
2023/06/03 11:14:54;;;;;;;3.25;0.88;;;;;;;23.99;19.92;101959.50;5040331;27;97128;-63
2023/06/03 11:17:22;;;;;;;4.53;1.02;;;;;;;24.48;19.58;101958.63;5029784;27;98545;-64
2023/06/03 11:19:54;;;;;;;3.03;1.10;;;;;;;24.45;19.48;101961.56;5025936;27;98928;-64
2023/06/03 11:22:41;;;;;;;6.03;1.00;;;;;;;24.51;19.65;101964.66;5027837;27;97925;-64
2023/06/03 11:25:32;;;;;;;6.07;0.90;;;;;;;24.71;19.48;101956.88;5025672;27;98458;-64
2023/06/03 11:28:36;;;;;;;2.53;1.20;;;;;;;24.89;19.12;101964.50;5022381;27;100098;-64
2023/06/03 11:31:05;;;;;;;4.13;1.02;;;;;;;25.00;19.17;101955.56;5030896;27;100435;-64